EST,Max TemperatureF,Mean TemperatureF,Min TemperatureF,Max Dew PointF,MeanDew PointF,Min DewpointF,Max Humidity, Mean Humidity, Min Humidity, Max Sea Level PressureIn, Mean Sea Level PressureIn, Min Sea Level PressureIn, Max VisibilityMiles, Mean VisibilityMiles, Min VisibilityMiles, Max Wind SpeedMPH, Mean Wind SpeedMPH, Max Gust SpeedMPH,PrecipitationIn, CloudCover, Events, WindDirDegrees
2012-11-1,57,50,43,36,34,28,73,56,32,29.78,29.73,29.69,10,10,10,12,8,17,0.00,6,,265
2012-11-2,58,48,39,36,27,12,80,50,18,29.96,29.84,29.77,10,10,10,18,8,25,0.00,2,,284
2012-11-3,51,43,36,33,28,20,82,57,29,30.11,30.04,29.96,10,10,10,15,6,22,0.00,2,,305
2012-11-4,51,47,43,36,30,27,66,55,43,30.11,30.08,30.00,10,10,10,8,4,,0.00,8,,340
2012-11-5,48,41,34,31,27,22,83,55,36,30.16,30.10,30.05,10,10,10,13,7,18,0.00,2,,6
2012-11-6,48,44,40,42,34,25,86,63,54,30.16,30.04,29.87,10,10,10,18,11,31,0.06,5,Rain,20
2012-11-7,46,44,40,41,36,30,88,76,57,29.90,29.86,29.82,10,10,7,17,13,26,0.08,8,Rain,339
2012-11-8,56,47,38,34,20,-30,84,55,4,30.07,29.92,29.89,10,10,10,16,10,22,0.00,4,,313
2012-11-9,56,48,39,37,27,17,90,50,25,30.27,30.20,30.07,10,10,10,10,6,,0.00,0,,320
2012-11-10,66,52,37,40,34,22,94,60,19,30.42,30.33,30.26,10,10,6,9,2,,0.00,0,,175
2012-11-11,69,56,44,51,40,28,93,59,21,30.51,30.46,30.41,10,10,10,8,4,,0.00,0,Rain,169
2012-11-12,73,60,46,61,51,46,100,91,43,30.47,30.41,30.21,10,4,0,12,2,,0.00,1,Fog-Rain,169
2012-11-13,64,53,42,61,45,35,100,88,65,30.43,30.33,30.18,10,9,4,20,11,26,0.25,8,Rain,4
2012-11-14,48,44,40,34,32,26,77,63,46,30.49,30.45,30.40,10,10,10,20,12,26,0.00,4,,15
2012-11-15,51,46,40,42,39,33,87,73,64,30.37,30.31,30.27,10,10,10,15,9,,0.07,6,Rain,20
2012-11-16,50,46,42,42,34,23,89,66,35,30.40,30.31,30.26,10,10,10,15,8,18,0.01,4,Rain,9
2012-11-17,51,48,44,45,37,23,87,65,42,30.53,30.49,30.40,10,10,10,17,13,25,0.00,4,,25
2012-11-18,55,52,48,46,44,43,87,78,65,30.50,30.45,30.38,10,10,10,18,15,26,0.00,6,Rain,21
2012-11-19,51,50,49,45,44,42,83,80,75,30.38,30.28,30.17,10,10,7,17,15,25,0.00,8,Rain,9
2012-11-20,54,50,46,45,44,42,90,79,64,30.16,30.13,30.09,10,10,10,12,8,17,0.00,7,,15
2012-11-21,54,48,42,44,40,37,94,76,56,30.19,30.15,30.10,10,10,10,14,8,22,0.00,1,,8
2012-11-22,56,49,39,41,39,37,92,72,54,30.23,30.18,30.15,10,10,10,18,8,26,0.00,1,,4
2012-11-23,61,48,35,45,34,23,100,69,23,30.15,30.01,29.81,10,9,5,12,4,,0.00,1,,235
2012-11-24,45,39,33,16,7,4,49,26,19,30.11,30.01,29.94,10,10,10,15,11,25,0.00,0,,323
2012-11-25,46,36,27,25,12,4,78,40,17,30.15,30.08,30.02,10,10,10,14,6,20,0.00,0,,247
2012-11-26,54,45,36,39,22,1,85,45,11,30.24,30.17,30.06,10,10,10,12,7,22,0.00,1,,145
2012-11-27,53,46,39,45,39,32,100,78,44,30.23,30.17,30.10,10,9,5,10,6,,0.11,7,Rain,310
2012-11-28,47,40,32,34,28,16,91,66,28,30.39,30.30,30.22,10,10,10,16,8,20,0.00,3,,325
2012-11-29,48,38,29,34,28,20,100,76,33,30.50,30.43,30.39,10,8,2,8,2,,0.00,0,,131
2012-11-30,58,45,32,36,30,21,92,62,24,30.41,30.35,30.12,10,10,8,14,4,17,0.00,0,,193